Hengoed, United Kingdom
Current Conditions -  °F | °C
As of 5:20 AM on Thursday 27 Nov 2014 (Local Time) from EGFF Reporting Station
Haze Haze  
Wind Chill: 45°   Ceiling: 100
Heat Index: 45°   Visibility: 1mi
Dew Point: 45°   Wind: 3mph
Humidity: 100%   Direction: 360°N
Pressure: 29.65"   Gusts: NA
Location:  51.64°N, 3.24°W
Report Text: EGFF 270520Z 36003KT 1600 BR BKN001 BKN016 07/07 Q1004
Loading
Personal Weather Stations






























Interactive Weather Map New forecast layout! Learn more

10-Day Weather Forecast

Advertisements
Track Severe Weather on mobile